Time,TemperatureF,DewpointF,PressureIn,WindDirection,WindDirectionDegrees,WindSpeedMPH,WindSpeedGustMPH,Humidity,HourlyPrecipIn,Conditions,Clouds,dailyrainin,SoftwareType,DateUTC
2013-10-08 00:02:00,52.9,47.2,29.50,North,9,0.0,1.0,81,0.00,,---,0.00,VWS V14.00,2013-10-08 05:02:00,
2013-10-08 00:07:00,52.9,47.2,29.50,North,10,0.0,1.0,81,0.00,,---,0.00,VWS V14.00,2013-10-08 05:07:00,
2013-10-08 00:12:00,52.9,47.5,29.50,NE,36,0.0,1.0,82,0.00,,---,0.00,VWS V14.00,2013-10-08 05:12:00,
2013-10-08 00:17:00,53.1,47.7,29.50,NNE,22,4.7,6.6,82,0.00,,---,0.00,VWS V14.00,2013-10-08 05:17:00,
2013-10-08 00:22:00,52.9,47.9,29.50,NNE,22,6.0,8.2,83,0.00,,---,0.00,VWS V14.00,2013-10-08 05:22:00,
2013-10-08 00:27:00,52.9,47.9,29.50,NNE,21,6.0,8.2,83,0.00,,---,0.00,VWS V14.00,2013-10-08 05:27:00,
2013-10-08 00:32:00,52.9,47.9,29.50,NNE,26,5.4,7.4,83,0.00,,---,0.00,VWS V14.00,2013-10-08 05:32:00,
2013-10-08 00:37:00,52.9,47.9,29.50,NNE,25,6.0,8.2,83,0.00,,---,0.00,VWS V14.00,2013-10-08 05:37:00,
2013-10-08 00:42:00,52.9,47.9,29.50,NNE,19,6.0,8.2,83,0.00,,---,0.00,VWS V14.00,2013-10-08 05:42:00,
2013-10-08 00:47:00,52.7,47.7,29.50,NNE,21,5.4,7.4,83,0.00,,---,0.00,VWS V14.00,2013-10-08 05:47:00,
2013-10-08 00:52:00,52.5,47.5,29.50,NNE,21,4.7,6.6,83,0.00,,---,0.00,VWS V14.00,2013-10-08 05:52:00,
2013-10-08 00:57:00,52.3,47.0,29.50,NNE,20,5.4,7.4,82,0.00,,---,0.00,VWS V14.00,2013-10-08 05:57:00,
2013-10-08 01:02:00,52.3,47.3,29.50,NE,37,4.0,7.4,83,0.00,,---,0.00,VWS V14.00,2013-10-08 06:02:00,
2013-10-08 01:07:00,52.2,46.8,29.50,NNE,28,4.0,5.8,82,0.00,,---,0.00,VWS V14.00,2013-10-08 06:07:00,
2013-10-08 01:12:00,52.0,46.7,29.50,NNE,25,4.0,5.8,82,0.00,,---,0.00,VWS V14.00,2013-10-08 06:12:00,
2013-10-08 01:17:00,51.8,46.5,29.50,NNE,25,0.0,1.0,82,0.00,,---,0.00,VWS V14.00,2013-10-08 06:17:00,
2013-10-08 01:22:00,51.8,46.5,29.50,NNE,27,0.0,1.0,82,0.00,,---,0.00,VWS V14.00,2013-10-08 06:22:00,
2013-10-08 01:27:00,51.6,46.3,29.50,NNE,21,4.0,5.8,82,0.00,,---,0.00,VWS V14.00,2013-10-08 06:27:00,
2013-10-08 01:32:00,51.6,46.6,29.50,NNE,23,4.0,6.6,83,0.00,,---,0.00,VWS V14.00,2013-10-08 06:32:00,
2013-10-08 01:37:00,51.6,46.6,29.50,NNE,25,0.0,1.0,83,0.00,,---,0.00,VWS V14.00,2013-10-08 06:37:00,
2013-10-08 01:42:00,51.6,46.6,29.50,NNE,27,0.0,1.0,83,0.00,,---,0.00,VWS V14.00,2013-10-08 06:42:00,
2013-10-08 01:47:00,51.4,46.5,29.50,NNE,28,0.0,1.0,83,0.00,,---,0.00,VWS V14.00,2013-10-08 06:47:00,
2013-10-08 01:52:00,51.3,46.3,29.53,NNE,28,0.0,1.0,83,0.00,,---,0.00,VWS V14.00,2013-10-08 06:52:00,
2013-10-08 01:57:00,51.3,46.3,29.53,NNE,27,0.0,1.0,83,0.00,,---,0.00,VWS V14.00,2013-10-08 06:57:00,
2013-10-08 02:02:00,51.3,46.3,29.53,NNE,28,0.0,1.0,83,0.00,,---,0.00,VWS V14.00,2013-10-08 07:02:00,
2013-10-08 02:07:00,51.3,46.3,29.53,NE,35,0.0,1.0,83,0.00,,---,0.00,VWS V14.00,2013-10-08 07:07:00,
2013-10-08 02:12:00,51.1,46.1,29.53,NE,35,0.0,1.0,83,0.00,,---,0.00,VWS V14.00,2013-10-08 07:12:00,
2013-10-08 02:17:00,51.1,46.1,29.53,NE,35,0.0,1.0,83,0.00,,---,0.00,VWS V14.00,2013-10-08 07:17:00,
2013-10-08 02:22:00,50.9,46.2,29.53,NE,35,0.0,1.0,84,0.00,,---,0.00,VWS V14.00,2013-10-08 07:22:00,
2013-10-08 02:27:00,50.7,46.1,29.53,NE,35,0.0,1.0,84,0.00,,---,0.00,VWS V14.00,2013-10-08 07:27:00,
2013-10-08 02:32:00,50.5,45.9,29.53,NNE,27,0.0,1.0,84,0.00,,---,0.00,VWS V14.00,2013-10-08 07:32:00,
2013-10-08 02:37:00,50.2,45.5,29.50,NNE,27,0.0,1.0,84,0.00,,---,0.00,VWS V14.00,2013-10-08 07:37:00,
2013-10-08 02:42:00,50.2,45.5,29.50,NNE,17,4.0,5.8,84,0.00,,---,0.00,VWS V14.00,2013-10-08 07:42:00,
2013-10-08 02:47:00,50.0,45.4,29.50,NNE,17,0.0,1.0,84,0.00,,---,0.00,VWS V14.00,2013-10-08 07:47:00,
2013-10-08 02:52:00,49.8,45.2,29.50,NNE,17,0.0,1.0,84,0.00,,---,0.00,VWS V14.00,2013-10-08 07:52:00,
2013-10-08 02:57:00,50.0,45.4,29.50,NNE,17,0.0,1.0,84,0.00,,---,0.00,VWS V14.00,2013-10-08 07:57:00,
2013-10-08 03:02:00,50.0,45.7,29.50,NNE,17,0.0,1.0,85,0.00,,---,0.00,VWS V14.00,2013-10-08 08:02:00,
2013-10-08 03:07:00,50.0,45.7,29.50,NNE,17,0.0,1.0,85,0.00,,---,0.00,VWS V14.00,2013-10-08 08:07:00,
2013-10-08 03:12:00,50.0,46.0,29.50,NNE,17,0.0,1.0,86,0.00,,---,0.00,VWS V14.00,2013-10-08 08:12:00,
2013-10-08 03:17:00,50.2,46.2,29.50,ENE,63,0.0,1.0,86,0.00,,---,0.00,VWS V14.00,2013-10-08 08:17:00,
2013-10-08 03:22:00,50.2,46.2,29.50,ENE,74,0.0,1.0,86,0.00,,---,0.00,VWS V14.00,2013-10-08 08:22:00,
2013-10-08 03:27:00,50.2,46.2,29.50,ENE,74,0.0,1.0,86,0.00,,---,0.00,VWS V14.00,2013-10-08 08:27:00,
2013-10-08 03:32:00,50.0,46.0,29.50,ENE,74,0.0,1.0,86,0.00,,---,0.00,VWS V14.00,2013-10-08 08:32:00,
2013-10-08 03:37:00,50.0,46.0,29.50,ENE,74,0.0,1.0,86,0.00,,---,0.00,VWS V14.00,2013-10-08 08:37:00,
2013-10-08 03:42:00,49.8,46.1,29.50,ENE,74,0.0,1.0,87,0.00,,---,0.00,VWS V14.00,2013-10-08 08:42:00,
2013-10-08 03:47:00,49.5,45.8,29.50,ENE,74,0.0,1.0,87,0.00,,---,0.00,VWS V14.00,2013-10-08 08:47:00,
2013-10-08 03:52:00,49.5,45.8,29.53,ENE,74,0.0,1.0,87,0.00,,---,0.00,VWS V14.00,2013-10-08 08:52:00,
2013-10-08 03:57:00,48.9,45.2,29.53,ENE,74,0.0,1.0,87,0.00,,---,0.00,VWS V14.00,2013-10-08 08:57:00,
2013-10-08 04:02:00,48.7,44.8,29.53,ENE,74,0.0,1.0,86,0.00,,---,0.00,VWS V14.00,2013-10-08 09:02:00,
2013-10-08 04:07:00,48.9,45.2,29.53,NE,52,0.0,1.0,87,0.00,,---,0.00,VWS V14.00,2013-10-08 09:07:00,
2013-10-08 04:12:00,49.1,45.4,29.53,NNE,33,0.0,1.0,87,0.00,,---,0.00,VWS V14.00,2013-10-08 09:12:00,
2013-10-08 04:17:00,49.1,45.4,29.53,NNE,33,0.0,1.0,87,0.00,,---,0.00,VWS V14.00,2013-10-08 09:17:00,
2013-10-08 04:22:00,49.1,45.4,29.53,NNE,33,0.0,1.0,87,0.00,,---,0.00,VWS V14.00,2013-10-08 09:22:00,
2013-10-08 04:27:00,49.1,45.4,29.53,NNE,33,0.0,1.0,87,0.00,,---,0.00,VWS V14.00,2013-10-08 09:27:00,
2013-10-08 04:32:00,49.1,45.4,29.53,NNE,33,0.0,1.0,87,0.00,,---,0.00,VWS V14.00,2013-10-08 09:32:00,
2013-10-08 04:37:00,48.9,45.2,29.53,NNE,33,0.0,1.0,87,0.00,,---,0.00,VWS V14.00,2013-10-08 09:37:00,
2013-10-08 04:42:00,48.7,45.0,29.53,NNE,33,0.0,1.0,87,0.00,,---,0.00,VWS V14.00,2013-10-08 09:42:00,
2013-10-08 04:47:00,48.6,44.9,29.53,NNE,33,0.0,1.0,87,0.00,,---,0.00,VWS V14.00,2013-10-08 09:47:00,
2013-10-08 04:52:00,48.2,44.5,29.53,NNE,33,0.0,1.0,87,0.00,,---,0.00,VWS V14.00,2013-10-08 09:52:00,
2013-10-08 04:57:00,48.2,44.5,29.53,NNE,33,0.0,1.0,87,0.00,,---,0.00,VWS V14.00,2013-10-08 09:57:00,
2013-10-08 05:02:00,47.7,44.0,29.53,NNE,33,0.0,1.0,87,0.00,,---,0.00,VWS V14.00,2013-10-08 10:02:00,
2013-10-08 05:07:00,47.7,44.0,29.53,NNE,33,0.0,1.0,87,0.00,,---,0.00,VWS V14.00,2013-10-08 10:07:00,
2013-10-08 05:12:00,48.6,44.9,29.53,NNE,33,0.0,1.0,87,0.00,,---,0.00,VWS V14.00,2013-10-08 10:12:00,
2013-10-08 05:17:00,48.9,45.2,29.53,NNE,33,0.0,1.0,87,0.00,,---,0.00,VWS V14.00,2013-10-08 10:17:00,
2013-10-08 05:22:00,49.1,45.7,29.53,NNE,33,0.0,1.0,88,0.00,,---,0.00,VWS V14.00,2013-10-08 10:22:00,
2013-10-08 05:27:00,49.3,45.9,29.53,NNE,33,0.0,1.0,88,0.00,,---,0.00,VWS V14.00,2013-10-08 10:27:00,
2013-10-08 05:32:00,49.3,46.2,29.53,NNE,33,0.0,1.0,89,0.00,,---,0.00,VWS V14.00,2013-10-08 10:32:00,
2013-10-08 05:37:00,49.3,46.2,29.53,NNE,33,0.0,1.0,89,0.00,,---,0.00,VWS V14.00,2013-10-08 10:37:00,
2013-10-08 05:42:00,49.3,46.2,29.53,NNE,33,0.0,1.0,89,0.00,,---,0.00,VWS V14.00,2013-10-08 10:42:00,
2013-10-08 05:47:00,49.1,46.0,29.53,NNE,25,0.0,1.0,89,0.00,,---,0.00,VWS V14.00,2013-10-08 10:47:00,
2013-10-08 05:52:00,49.1,46.0,29.53,NNE,21,0.0,1.0,89,0.00,,---,0.00,VWS V14.00,2013-10-08 10:52:00,
2013-10-08 05:57:00,49.1,46.3,29.53,NNE,21,0.0,1.0,90,0.00,,---,0.00,VWS V14.00,2013-10-08 10:57:00,
2013-10-08 06:02:00,49.3,46.5,29.53,NNE,23,0.0,1.0,90,0.00,,---,0.00,VWS V14.00,2013-10-08 11:02:00,
2013-10-08 06:07:00,49.3,46.2,29.53,NNE,23,0.0,1.0,89,0.00,,---,0.00,VWS V14.00,2013-10-08 11:07:00,
2013-10-08 06:12:00,49.3,46.2,29.53,NNE,25,0.0,1.0,89,0.00,,---,0.00,VWS V14.00,2013-10-08 11:12:00,
2013-10-08 06:17:00,49.1,46.0,29.53,NNE,25,0.0,1.0,89,0.00,,---,0.00,VWS V14.00,2013-10-08 11:17:00,
2013-10-08 06:22:00,49.1,46.0,29.53,NNE,25,0.0,1.0,89,0.00,,---,0.00,VWS V14.00,2013-10-08 11:22:00,
2013-10-08 06:27:00,49.1,46.0,29.53,NNE,25,0.0,1.0,89,0.00,,---,0.00,VWS V14.00,2013-10-08 11:27:00,
2013-10-08 06:32:00,48.9,45.8,29.53,NNE,25,0.0,1.0,89,0.00,,---,0.00,VWS V14.00,2013-10-08 11:32:00,
2013-10-08 06:37:00,48.9,45.8,29.53,NNE,25,0.0,1.0,89,0.00,,---,0.00,VWS V14.00,2013-10-08 11:37:00,
2013-10-08 06:42:00,48.9,45.8,29.53,NNE,25,0.0,1.0,89,0.00,,---,0.00,VWS V14.00,2013-10-08 11:42:00,
2013-10-08 06:47:00,48.9,45.8,29.56,NNE,25,0.0,1.0,89,0.00,,---,0.00,VWS V14.00,2013-10-08 11:47:00,
2013-10-08 06:52:00,48.7,45.3,29.56,NNE,25,0.0,1.0,88,0.00,,---,0.00,VWS V14.00,2013-10-08 11:52:00,
2013-10-08 06:57:00,48.7,45.3,29.56,NNE,28,0.0,1.0,88,0.00,,---,0.00,VWS V14.00,2013-10-08 11:57:00,
2013-10-08 07:02:00,48.7,45.3,29.56,NNE,28,0.0,1.0,88,0.00,,---,0.00,VWS V14.00,2013-10-08 12:02:00,
2013-10-08 07:07:00,48.7,45.3,29.56,NNE,28,0.0,1.0,88,0.00,,---,0.00,VWS V14.00,2013-10-08 12:07:00,
2013-10-08 07:12:00,48.7,45.3,29.56,NNE,28,0.0,1.0,88,0.00,,---,0.00,VWS V14.00,2013-10-08 12:12:00,
2013-10-08 07:17:00,48.7,45.7,29.56,NNE,29,0.0,1.0,89,0.00,,---,0.00,VWS V14.00,2013-10-08 12:17:00,
2013-10-08 07:22:00,48.7,45.7,29.56,NNE,28,0.0,1.0,89,0.00,,---,0.00,VWS V14.00,2013-10-08 12:22:00,
2013-10-08 07:27:00,49.1,46.0,29.56,NNE,23,0.0,1.0,89,0.00,,---,0.00,VWS V14.00,2013-10-08 12:27:00,
2013-10-08 07:32:00,49.3,46.2,29.56,NNE,23,0.0,1.0,89,0.00,,---,0.00,VWS V14.00,2013-10-08 12:32:00,
2013-10-08 07:37:00,49.5,46.7,29.56,NE,42,0.0,1.0,90,0.00,,---,0.00,VWS V14.00,2013-10-08 12:37:00,
2013-10-08 07:42:00,49.5,46.7,29.56,NE,42,0.0,1.0,90,0.00,,---,0.00,VWS V14.00,2013-10-08 12:42:00,
2013-10-08 07:47:00,49.6,46.8,29.56,ENE,78,0.0,1.0,90,0.00,,---,0.00,VWS V14.00,2013-10-08 12:47:00,
2013-10-08 07:52:00,50.0,46.9,29.56,ENE,73,0.0,1.0,89,0.00,,---,0.00,VWS V14.00,2013-10-08 12:52:00,
2013-10-08 07:57:00,50.2,47.1,29.56,ENE,71,0.0,1.0,89,0.00,,---,0.00,VWS V14.00,2013-10-08 12:57:00,
2013-10-08 08:02:00,50.5,47.4,29.56,ENE,72,0.0,1.0,89,0.00,,---,0.00,VWS V14.00,2013-10-08 13:02:00,
2013-10-08 08:07:00,50.9,47.8,29.56,ENE,66,3.4,5.0,89,0.00,,---,0.00,VWS V14.00,2013-10-08 13:07:00,
2013-10-08 08:12:00,51.1,48.0,29.56,East,86,5.4,7.4,89,0.00,,---,0.00,VWS V14.00,2013-10-08 13:12:00,
2013-10-08 08:17:00,51.3,47.8,29.56,East,95,8.1,10.7,88,0.00,,---,0.00,VWS V14.00,2013-10-08 13:17:00,
2013-10-08 08:22:00,51.8,48.1,29.56,ENE,76,4.7,6.6,87,0.00,,---,0.00,VWS V14.00,2013-10-08 13:22:00,
2013-10-08 08:27:00,52.2,48.1,29.56,NE,51,3.4,5.0,86,0.00,,---,0.00,VWS V14.00,2013-10-08 13:27:00,
2013-10-08 08:32:00,52.7,48.3,29.56,NE,51,3.4,5.0,85,0.00,,---,0.00,VWS V14.00,2013-10-08 13:32:00,
2013-10-08 08:37:00,53.1,48.4,29.56,ENE,71,4.0,5.8,84,0.00,,---,0.00,VWS V14.00,2013-10-08 13:37:00,
2013-10-08 08:42:00,53.4,48.4,29.56,East,80,9.4,12.3,83,0.00,,---,0.00,VWS V14.00,2013-10-08 13:42:00,
2013-10-08 08:47:00,54.0,47.9,29.56,ENE,69,4.7,6.6,80,0.00,,---,0.00,VWS V14.00,2013-10-08 13:47:00,
2013-10-08 08:52:00,54.1,47.4,29.56,East,94,7.4,9.9,78,0.00,,---,0.00,VWS V14.00,2013-10-08 13:52:00,
2013-10-08 08:57:00,54.7,47.6,29.56,ENE,75,4.7,6.6,77,0.00,,---,0.00,VWS V14.00,2013-10-08 13:57:00,
2013-10-08 09:02:00,55.0,47.6,29.56,ENE,72,7.4,10.7,76,0.00,,---,0.00,VWS V14.00,2013-10-08 14:02:00,
2013-10-08 09:07:00,55.6,47.8,29.56,ENE,74,12.4,15.9,75,0.00,,---,0.00,VWS V14.00,2013-10-08 14:07:00,
2013-10-08 09:12:00,56.1,48.0,29.56,ESE,113,5.4,7.4,74,0.00,,---,0.00,VWS V14.00,2013-10-08 14:12:00,
2013-10-08 09:17:00,56.7,48.1,29.56,East,85,8.7,11.5,73,0.00,,---,0.00,VWS V14.00,2013-10-08 14:17:00,
2013-10-08 09:22:00,56.8,47.5,29.56,ENE,70,8.7,11.5,71,0.00,,---,0.00,VWS V14.00,2013-10-08 14:22:00,
2013-10-08 09:27:00,57.2,47.1,29.59,ENE,71,9.4,12.3,69,0.00,,---,0.00,VWS V14.00,2013-10-08 14:27:00,
2013-10-08 09:32:00,57.6,46.7,29.59,ENE,70,8.1,11.5,67,0.00,,---,0.00,VWS V14.00,2013-10-08 14:32:00,
2013-10-08 09:37:00,57.9,45.8,29.59,ENE,73,8.1,10.7,64,0.00,,---,0.00,VWS V14.00,2013-10-08 14:37:00,
2013-10-08 09:42:00,58.3,45.8,29.59,East,84,13.1,16.7,63,0.00,,---,0.00,VWS V14.00,2013-10-08 14:42:00,
2013-10-08 09:47:00,58.6,44.4,29.59,ENE,65,12.1,15.5,59,0.00,,---,0.00,VWS V14.00,2013-10-08 14:47:00,
2013-10-08 09:52:00,59.0,44.3,29.59,ENE,67,8.7,11.5,58,0.00,,---,0.00,VWS V14.00,2013-10-08 14:52:00,
2013-10-08 09:57:00,59.4,44.6,29.59,ESE,111,5.4,7.4,58,0.00,,---,0.00,VWS V14.00,2013-10-08 14:57:00,
2013-10-08 10:02:00,59.7,44.5,29.59,NNE,23,9.4,12.3,57,0.00,,---,0.00,VWS V14.00,2013-10-08 15:02:00,
2013-10-08 10:07:00,59.9,42.7,29.59,NNE,23,9.4,12.3,53,0.00,,---,0.00,VWS V14.00,2013-10-08 15:07:00,
2013-10-08 10:12:00,60.1,42.4,29.59,ENE,78,11.4,14.7,52,0.00,,---,0.00,VWS V14.00,2013-10-08 15:12:00,
2013-10-08 10:17:00,60.3,43.1,29.59,SSE,153,8.1,10.7,53,0.00,,---,0.00,VWS V14.00,2013-10-08 15:17:00,
2013-10-08 10:22:00,60.6,42.9,29.59,ENE,70,12.1,15.5,52,0.00,,---,0.00,VWS V14.00,2013-10-08 15:22:00,
2013-10-08 10:27:00,60.8,42.1,29.56,ENE,69,8.7,12.3,50,0.00,,---,0.00,VWS V14.00,2013-10-08 15:27:00,
2013-10-08 10:32:00,61.0,41.7,29.56,ENE,70,6.0,8.2,49,0.00,,---,0.00,VWS V14.00,2013-10-08 15:32:00,
2013-10-08 10:37:00,61.3,42.0,29.56,ENE,75,12.4,15.9,49,0.00,,---,0.00,VWS V14.00,2013-10-08 15:37:00,
2013-10-08 10:42:00,61.5,43.2,29.56,ENE,63,12.1,15.5,51,0.00,,---,0.00,VWS V14.00,2013-10-08 15:42:00,
2013-10-08 10:47:00,61.7,42.4,29.56,NE,56,8.7,11.5,49,0.00,,---,0.00,VWS V14.00,2013-10-08 15:47:00,
2013-10-08 10:52:00,61.9,42.0,29.56,East,86,12.1,15.5,48,0.00,,---,0.00,VWS V14.00,2013-10-08 15:52:00,
2013-10-08 10:57:00,62.1,42.7,29.56,ENE,74,4.7,6.6,49,0.00,,---,0.00,VWS V14.00,2013-10-08 15:57:00,
2013-10-08 11:02:00,62.2,42.3,29.56,NE,38,10.1,13.1,48,0.00,,---,0.00,VWS V14.00,2013-10-08 16:02:00,
2013-10-08 11:07:00,62.4,42.5,29.56,NNE,32,8.7,11.5,48,0.00,,---,0.00,VWS V14.00,2013-10-08 16:07:00,
2013-10-08 11:12:00,62.6,42.1,29.56,NNE,32,8.7,11.5,47,0.00,,---,0.00,VWS V14.00,2013-10-08 16:12:00,
2013-10-08 11:17:00,62.6,42.7,29.56,East,85,7.4,13.1,48,0.00,,---,0.00,VWS V14.00,2013-10-08 16:17:00,
2013-10-08 11:22:00,63.1,42.6,29.56,ESE,102,12.1,15.5,47,0.00,,---,0.00,VWS V14.00,2013-10-08 16:22:00,
2013-10-08 11:27:00,63.3,41.1,29.56,ENE,74,10.7,24.0,44,0.00,,---,0.00,VWS V14.00,2013-10-08 16:27:00,
2013-10-08 11:32:00,63.7,40.8,29.56,East,82,12.4,15.9,43,0.00,,---,0.00,VWS V14.00,2013-10-08 16:32:00,
2013-10-08 11:37:00,63.9,41.0,29.56,East,86,9.4,12.3,43,0.00,,---,0.00,VWS V14.00,2013-10-08 16:37:00,
2013-10-08 11:42:00,64.0,39.9,29.56,NE,46,13.1,16.7,41,0.00,,---,0.00,VWS V14.00,2013-10-08 16:42:00,
2013-10-08 11:47:00,64.0,41.1,29.56,East,83,9.4,12.3,43,0.00,,---,0.00,VWS V14.00,2013-10-08 16:47:00,
2013-10-08 11:52:00,64.2,40.7,29.56,NE,37,8.7,11.5,42,0.00,,---,0.00,VWS V14.00,2013-10-08 16:52:00,
2013-10-08 11:57:00,64.8,40.5,29.56,East,96,12.4,15.9,41,0.00,,---,0.00,VWS V14.00,2013-10-08 16:57:00,
2013-10-08 12:02:00,65.3,40.4,29.56,East,99,6.0,8.2,40,0.00,,---,0.00,VWS V14.00,2013-10-08 17:02:00,
2013-10-08 12:07:00,65.5,41.2,29.56,East,88,8.7,11.5,41,0.00,,---,0.00,VWS V14.00,2013-10-08 17:07:00,
2013-10-08 12:12:00,65.5,40.5,29.56,ENE,69,8.1,12.3,40,0.00,,---,0.00,VWS V14.00,2013-10-08 17:12:00,
2013-10-08 12:17:00,65.8,40.2,29.56,ENE,62,13.1,16.7,39,0.00,,---,0.00,VWS V14.00,2013-10-08 17:17:00,
2013-10-08 12:22:00,65.5,39.9,29.56,East,86,8.7,16.7,39,0.00,,---,0.00,VWS V14.00,2013-10-08 17:22:00,
2013-10-08 12:27:00,65.8,40.9,29.56,East,81,8.1,10.7,40,0.00,,---,0.00,VWS V14.00,2013-10-08 17:27:00,
2013-10-08 12:32:00,66.2,41.2,29.56,East,87,11.4,14.7,40,0.00,,---,0.00,VWS V14.00,2013-10-08 17:32:00,
2013-10-08 12:37:00,66.2,40.5,29.56,NNE,17,15.1,20.7,39,0.00,,---,0.00,VWS V14.00,2013-10-08 17:37:00,
2013-10-08 12:42:00,66.4,40.7,29.56,NNE,24,12.4,15.9,39,0.00,,---,0.00,VWS V14.00,2013-10-08 17:42:00,
2013-10-08 12:47:00,66.6,40.9,29.56,East,98,7.4,9.9,39,0.00,,---,0.00,VWS V14.00,2013-10-08 17:47:00,
2013-10-08 12:52:00,66.9,39.1,29.53,East,89,15.1,19.1,36,0.00,,---,0.00,VWS V14.00,2013-10-08 17:52:00,
2013-10-08 12:57:00,67.3,40.1,29.53,ESE,115,8.7,12.3,37,0.00,,---,0.00,VWS V14.00,2013-10-08 17:57:00,
2013-10-08 13:03:00,67.5,39.6,29.53,ENE,68,8.1,10.7,36,0.00,,---,0.00,VWS V14.00,2013-10-08 18:03:00,
2013-10-08 13:08:00,67.5,39.6,29.53,ENE,64,8.1,10.7,36,0.00,,---,0.00,VWS V14.00,2013-10-08 18:08:00,
2013-10-08 13:13:00,67.3,39.4,29.53,ENE,57,8.1,14.7,36,0.00,,---,0.00,VWS V14.00,2013-10-08 18:13:00,
2013-10-08 13:18:00,67.3,39.4,29.53,East,83,8.7,11.5,36,0.00,,---,0.00,VWS V14.00,2013-10-08 18:18:00,
2013-10-08 13:23:00,67.5,39.6,29.53,East,89,12.4,15.9,36,0.00,,---,0.00,VWS V14.00,2013-10-08 18:23:00,
2013-10-08 13:28:00,67.5,39.6,29.53,East,83,11.4,15.9,36,0.00,,---,0.00,VWS V14.00,2013-10-08 18:28:00,
2013-10-08 13:33:00,67.6,39.0,29.53,NNE,29,17.1,21.5,35,0.00,,---,0.00,VWS V14.00,2013-10-08 18:33:00,
2013-10-08 13:38:00,67.8,39.9,29.53,NNE,21,11.4,14.7,36,0.00,,---,0.00,VWS V14.00,2013-10-08 18:38:00,
2013-10-08 13:43:00,67.8,39.9,29.53,NE,36,8.1,10.7,36,0.00,,---,0.00,VWS V14.00,2013-10-08 18:43:00,
2013-10-08 13:48:00,68.0,39.3,29.53,ENE,70,9.4,12.3,35,0.00,,---,0.00,VWS V14.00,2013-10-08 18:48:00,
2013-10-08 13:53:00,68.5,39.8,29.50,NE,45,8.7,15.5,35,0.00,,---,0.00,VWS V14.00,2013-10-08 18:53:00,
2013-10-08 13:58:00,68.2,39.5,29.50,NNE,31,11.4,14.7,35,0.00,,---,0.00,VWS V14.00,2013-10-08 18:58:00,
2013-10-08 14:03:00,68.2,39.5,29.50,ENE,61,12.1,15.5,35,0.00,,---,0.00,VWS V14.00,2013-10-08 19:03:00,
2013-10-08 14:08:00,68.2,38.8,29.50,ENE,61,12.1,15.5,34,0.00,,---,0.00,VWS V14.00,2013-10-08 19:08:00,
2013-10-08 14:13:00,68.2,39.5,29.50,NNE,29,9.4,12.3,35,0.00,,---,0.00,VWS V14.00,2013-10-08 19:13:00,
2013-10-08 14:18:00,68.4,38.9,29.50,NE,38,9.4,14.7,34,0.00,,---,0.00,VWS V14.00,2013-10-08 19:18:00,
2013-10-08 14:23:00,68.5,39.1,29.50,East,89,9.4,12.3,34,0.00,,---,0.00,VWS V14.00,2013-10-08 19:23:00,
2013-10-08 14:28:00,68.7,40.0,29.50,ENE,70,6.0,12.3,35,0.00,,---,0.00,VWS V14.00,2013-10-08 19:28:00,
2013-10-08 14:33:00,69.3,39.7,29.50,NNE,17,15.1,19.1,34,0.00,,---,0.00,VWS V14.00,2013-10-08 19:33:00,
2013-10-08 14:38:00,69.1,39.6,29.50,NE,37,13.1,16.7,34,0.00,,---,0.00,VWS V14.00,2013-10-08 19:38:00,
2013-10-08 14:43:00,68.9,39.4,29.50,East,79,9.4,12.3,34,0.00,,---,0.00,VWS V14.00,2013-10-08 19:43:00,
2013-10-08 14:48:00,68.9,40.2,29.50,NE,35,8.1,15.9,35,0.00,,---,0.00,VWS V14.00,2013-10-08 19:48:00,
2013-10-08 14:53:00,69.1,39.6,29.50,East,92,18.5,23.1,34,0.00,,---,0.00,VWS V14.00,2013-10-08 19:53:00,
2013-10-08 14:58:00,69.3,39.7,29.50,NNE,18,6.0,12.3,34,0.00,,---,0.00,VWS V14.00,2013-10-08 19:58:00,
2013-10-08 15:03:00,69.3,40.5,29.50,East,84,4.7,6.6,35,0.00,,---,0.00,VWS V14.00,2013-10-08 20:03:00,
2013-10-08 15:08:00,69.3,39.7,29.50,NNE,29,6.0,8.2,34,0.00,,---,0.00,VWS V14.00,2013-10-08 20:08:00,
2013-10-08 15:13:00,69.4,39.9,29.50,East,85,9.4,12.3,34,0.00,,---,0.00,VWS V14.00,2013-10-08 20:13:00,
2013-10-08 15:18:00,69.6,40.0,29.50,ENE,62,11.4,15.5,34,0.00,,---,0.00,VWS V14.00,2013-10-08 20:18:00,
2013-10-08 15:23:00,69.4,39.9,29.50,ENE,63,8.1,10.7,34,0.00,,---,0.00,VWS V14.00,2013-10-08 20:23:00,
2013-10-08 15:28:00,69.4,39.9,29.50,NE,44,6.0,15.5,34,0.00,,---,0.00,VWS V14.00,2013-10-08 20:28:00,
2013-10-08 15:33:00,68.9,39.4,29.50,ENE,69,9.4,13.9,34,0.00,,---,0.00,VWS V14.00,2013-10-08 20:33:00,
2013-10-08 15:38:00,68.7,39.2,29.50,NE,46,8.7,11.5,34,0.00,,---,0.00,VWS V14.00,2013-10-08 20:38:00,
2013-10-08 15:43:00,68.7,39.2,29.50,NNE,25,8.1,10.7,34,0.00,,---,0.00,VWS V14.00,2013-10-08 20:43:00,
2013-10-08 15:48:00,68.5,39.8,29.50,NE,53,9.4,12.3,35,0.00,,---,0.00,VWS V14.00,2013-10-08 20:48:00,
2013-10-08 15:53:00,68.4,39.7,29.50,NNE,25,8.7,11.5,35,0.00,,---,0.00,VWS V14.00,2013-10-08 20:53:00,
2013-10-08 15:58:00,68.5,39.8,29.50,NE,43,8.1,12.3,35,0.00,,---,0.00,VWS V14.00,2013-10-08 20:58:00,
2013-10-08 16:03:00,68.5,39.8,29.50,NNE,29,8.7,11.5,35,0.00,,---,0.00,VWS V14.00,2013-10-08 21:03:00,
2013-10-08 16:08:00,68.7,40.0,29.50,ESE,103,5.4,14.7,35,0.00,,---,0.00,VWS V14.00,2013-10-08 21:08:00,
2013-10-08 16:13:00,68.7,40.0,29.50,ENE,71,8.7,12.3,35,0.00,,---,0.00,VWS V14.00,2013-10-08 21:13:00,
2013-10-08 16:18:00,68.5,39.8,29.50,NNE,24,8.7,22.3,35,0.00,,---,0.00,VWS V14.00,2013-10-08 21:18:00,
2013-10-08 16:23:00,68.2,39.5,29.50,NE,49,6.7,11.5,35,0.00,,---,0.00,VWS V14.00,2013-10-08 21:23:00,
2013-10-08 16:28:00,68.0,39.3,29.50,NE,35,8.7,12.3,35,0.00,,---,0.00,VWS V14.00,2013-10-08 21:28:00,
2013-10-08 16:33:00,67.8,39.9,29.50,ENE,72,6.0,8.2,36,0.00,,---,0.00,VWS V14.00,2013-10-08 21:33:00,
2013-10-08 16:38:00,68.0,39.3,29.47,ENE,75,8.7,11.5,35,0.00,,---,0.00,VWS V14.00,2013-10-08 21:38:00,
2013-10-08 16:43:00,68.0,40.1,29.47,NE,34,13.8,17.5,36,0.00,,---,0.00,VWS V14.00,2013-10-08 21:43:00,
2013-10-08 16:48:00,67.6,39.8,29.47,ENE,76,12.1,15.5,36,0.00,,---,0.00,VWS V14.00,2013-10-08 21:48:00,
2013-10-08 16:53:00,67.6,39.8,29.50,NNE,23,9.4,12.3,36,0.00,,---,0.00,VWS V14.00,2013-10-08 21:53:00,
2013-10-08 16:58:00,67.6,39.8,29.50,NE,52,6.0,9.9,36,0.00,,---,0.00,VWS V14.00,2013-10-08 21:58:00,
2013-10-08 17:03:00,67.8,39.9,29.50,ENE,78,8.7,12.3,36,0.00,,---,0.00,VWS V14.00,2013-10-08 22:03:00,
2013-10-08 17:08:00,67.5,39.6,29.50,NNE,33,8.1,10.7,36,0.00,,---,0.00,VWS V14.00,2013-10-08 22:08:00,
2013-10-08 17:13:00,67.3,39.4,29.50,ENE,63,6.0,8.2,36,0.00,,---,0.00,VWS V14.00,2013-10-08 22:13:00,
2013-10-08 17:18:00,67.1,39.3,29.50,NE,40,5.4,8.2,36,0.00,,---,0.00,VWS V14.00,2013-10-08 22:18:00,
2013-10-08 17:23:00,67.1,40.0,29.50,ENE,77,9.4,12.3,37,0.00,,---,0.00,VWS V14.00,2013-10-08 22:23:00,
2013-10-08 17:28:00,66.9,39.8,29.50,ESE,107,4.0,8.2,37,0.00,,---,0.00,VWS V14.00,2013-10-08 22:28:00,
2013-10-08 17:33:00,66.7,39.7,29.50,ENE,59,0.0,1.0,37,0.00,,---,0.00,VWS V14.00,2013-10-08 22:33:00,
2013-10-08 17:38:00,66.6,40.2,29.50,ENE,66,5.4,7.4,38,0.00,,---,0.00,VWS V14.00,2013-10-08 22:38:00,
2013-10-08 17:43:00,66.4,40.0,29.50,East,82,4.0,5.8,38,0.00,,---,0.00,VWS V14.00,2013-10-08 22:43:00,
2013-10-08 17:48:00,66.2,40.5,29.50,East,82,0.0,5.8,39,0.00,,---,0.00,VWS V14.00,2013-10-08 22:48:00,
2013-10-08 17:53:00,66.0,41.0,29.50,NE,55,4.7,6.6,40,0.00,,---,0.00,VWS V14.00,2013-10-08 22:53:00,
2013-10-08 17:58:00,66.0,41.0,29.50,ENE,69,0.0,1.0,40,0.00,,---,0.00,VWS V14.00,2013-10-08 22:58:00,
2013-10-08 18:03:00,65.5,41.2,29.50,East,79,0.0,1.0,41,0.00,,---,0.00,VWS V14.00,2013-10-08 23:03:00,
2013-10-08 18:08:00,65.1,41.5,29.50,ENE,78,0.0,1.0,42,0.00,,---,0.00,VWS V14.00,2013-10-08 23:08:00,
2013-10-08 18:13:00,64.4,41.4,29.50,ENE,70,0.0,1.0,43,0.00,,---,0.00,VWS V14.00,2013-10-08 23:13:00,
2013-10-08 18:18:00,63.7,41.4,29.50,NE,50,0.0,1.0,44,0.00,,---,0.00,VWS V14.00,2013-10-08 23:18:00,
2013-10-08 18:23:00,63.3,41.1,29.50,NE,50,0.0,1.0,44,0.00,,---,0.00,VWS V14.00,2013-10-08 23:23:00,
2013-10-08 18:28:00,62.8,41.2,29.50,NE,50,0.0,1.0,45,0.00,,---,0.00,VWS V14.00,2013-10-08 23:28:00,
2013-10-08 18:33:00,62.4,41.4,29.50,NE,50,0.0,1.0,46,0.00,,---,0.00,VWS V14.00,2013-10-08 23:33:00,
2013-10-08 18:38:00,62.1,41.6,29.50,NE,50,0.0,1.0,47,0.00,,---,0.00,VWS V14.00,2013-10-08 23:38:00,
2013-10-08 18:43:00,61.5,41.1,29.50,NE,50,0.0,1.0,47,0.00,,---,0.00,VWS V14.00,2013-10-08 23:43:00,
2013-10-08 18:48:00,61.0,41.2,29.50,NE,50,0.0,1.0,48,0.00,,---,0.00,VWS V14.00,2013-10-08 23:48:00,
2013-10-08 18:53:00,60.8,41.0,29.50,NE,50,0.0,1.0,48,0.00,,---,0.00,VWS V14.00,2013-10-08 23:53:00,
2013-10-08 18:58:00,60.4,41.2,29.50,NE,49,0.0,1.0,49,0.00,,---,0.00,VWS V14.00,2013-10-08 23:58:00,
2013-10-08 19:03:00,60.3,41.6,29.50,NE,41,0.0,1.0,50,0.00,,---,0.00,VWS V14.00,2013-10-09 00:03:00,
2013-10-08 19:08:00,60.1,41.4,29.50,NNE,26,0.0,1.0,50,0.00,,---,0.00,VWS V14.00,2013-10-09 00:08:00,
2013-10-08 19:13:00,59.9,41.8,29.50,NNE,26,0.0,1.0,51,0.00,,---,0.00,VWS V14.00,2013-10-09 00:13:00,
2013-10-08 19:18:00,59.7,42.1,29.50,NNE,22,4.7,7.4,52,0.00,,---,0.00,VWS V14.00,2013-10-09 00:18:00,
2013-10-08 19:23:00,59.7,42.6,29.50,NNE,22,5.4,7.4,53,0.00,,---,0.00,VWS V14.00,2013-10-09 00:23:00,
2013-10-08 19:28:00,59.5,42.4,29.50,NNE,16,4.7,7.4,53,0.00,,---,0.00,VWS V14.00,2013-10-09 00:28:00,
2013-10-08 19:33:00,59.4,42.2,29.50,NNE,17,4.7,6.6,53,0.00,,---,0.00,VWS V14.00,2013-10-09 00:33:00,
2013-10-08 19:38:00,59.4,42.7,29.50,NNE,21,5.4,8.2,54,0.00,,---,0.00,VWS V14.00,2013-10-09 00:38:00,
2013-10-08 19:43:00,59.4,43.2,29.50,NE,34,5.4,7.4,55,0.00,,---,0.00,VWS V14.00,2013-10-09 00:43:00,
2013-10-08 19:48:00,59.2,43.0,29.50,NE,37,0.0,1.0,55,0.00,,---,0.00,VWS V14.00,2013-10-09 00:48:00,
2013-10-08 19:53:00,59.2,43.5,29.50,ENE,76,4.7,6.6,56,0.00,,---,0.00,VWS V14.00,2013-10-09 00:53:00,
2013-10-08 19:58:00,59.4,43.7,29.50,ENE,76,0.0,1.0,56,0.00,,---,0.00,VWS V14.00,2013-10-09 00:58:00,
2013-10-08 20:03:00,59.2,43.5,29.50,ENE,76,4.0,5.8,56,0.00,,---,0.00,VWS V14.00,2013-10-09 01:03:00,
2013-10-08 20:08:00,59.0,43.8,29.50,ENE,76,0.0,1.0,57,0.00,,---,0.00,VWS V14.00,2013-10-09 01:08:00,
2013-10-08 20:13:00,59.0,43.8,29.50,ENE,58,0.0,1.0,57,0.00,,---,0.00,VWS V14.00,2013-10-09 01:13:00,
2013-10-08 20:18:00,58.8,43.6,29.50,ENE,58,0.0,1.0,57,0.00,,---,0.00,VWS V14.00,2013-10-09 01:18:00,
2013-10-08 20:23:00,58.8,44.1,29.50,ENE,58,0.0,1.0,58,0.00,,---,0.00,VWS V14.00,2013-10-09 01:23:00,
2013-10-08 20:28:00,58.6,43.9,29.50,ENE,58,0.0,1.0,58,0.00,,---,0.00,VWS V14.00,2013-10-09 01:28:00,
2013-10-08 20:33:00,58.5,43.8,29.50,ENE,58,0.0,1.0,58,0.00,,---,0.00,VWS V14.00,2013-10-09 01:33:00,
2013-10-08 20:38:00,58.1,43.9,29.50,NE,47,4.7,6.6,59,0.00,,---,0.00,VWS V14.00,2013-10-09 01:38:00,
2013-10-08 20:43:00,57.9,43.7,29.50,NE,44,0.0,1.0,59,0.00,,---,0.00,VWS V14.00,2013-10-09 01:43:00,
2013-10-08 20:48:00,57.9,44.1,29.50,NE,44,0.0,1.0,60,0.00,,---,0.00,VWS V14.00,2013-10-09 01:48:00,
2013-10-08 20:53:00,57.7,44.4,29.50,NE,44,4.7,6.6,61,0.00,,---,0.00,VWS V14.00,2013-10-09 01:53:00,
2013-10-08 20:58:00,57.6,44.2,29.50,NE,44,6.0,8.2,61,0.00,,---,0.00,VWS V14.00,2013-10-09 01:58:00,
2013-10-08 21:03:00,57.2,43.9,29.50,NE,35,4.7,6.6,61,0.00,,---,0.00,VWS V14.00,2013-10-09 02:03:00,
2013-10-08 21:08:00,56.7,43.8,29.50,NNE,19,5.4,7.4,62,0.00,,---,0.00,VWS V14.00,2013-10-09 02:08:00,
2013-10-08 21:13:00,56.3,43.9,29.50,NNE,19,5.4,7.4,63,0.00,,---,0.00,VWS V14.00,2013-10-09 02:13:00,
2013-10-08 21:18:00,56.3,43.9,29.50,NNE,19,4.7,7.4,63,0.00,,---,0.00,VWS V14.00,2013-10-09 02:18:00,
2013-10-08 21:23:00,56.1,44.5,29.50,NNE,19,4.0,6.6,65,0.00,,---,0.00,VWS V14.00,2013-10-09 02:23:00,
2013-10-08 21:28:00,56.1,45.3,29.50,NNE,19,4.0,5.8,67,0.00,,---,0.00,VWS V14.00,2013-10-09 02:28:00,
2013-10-08 21:33:00,56.1,45.3,29.50,NNE,19,0.0,1.0,67,0.00,,---,0.00,VWS V14.00,2013-10-09 02:33:00,
2013-10-08 21:38:00,56.3,46.3,29.50,ENE,76,0.0,1.0,69,0.00,,---,0.00,VWS V14.00,2013-10-09 02:38:00,
2013-10-08 21:43:00,56.5,46.8,29.50,ENE,76,0.0,1.0,70,0.00,,---,0.00,VWS V14.00,2013-10-09 02:43:00,
2013-10-08 21:48:00,56.7,47.0,29.50,ENE,76,4.0,5.8,70,0.00,,---,0.00,VWS V14.00,2013-10-09 02:48:00,
2013-10-08 21:53:00,56.7,47.0,29.50,ENE,76,3.4,5.0,70,0.00,,---,0.00,VWS V14.00,2013-10-09 02:53:00,
2013-10-08 21:58:00,56.5,46.8,29.50,ENE,76,0.0,1.0,70,0.00,,---,0.00,VWS V14.00,2013-10-09 02:58:00,
2013-10-08 22:03:00,56.3,46.3,29.50,ENE,76,0.0,1.0,69,0.00,,---,0.00,VWS V14.00,2013-10-09 03:03:00,
2013-10-08 22:08:00,56.3,46.3,29.50,ENE,76,0.0,1.0,69,0.00,,---,0.00,VWS V14.00,2013-10-09 03:08:00,
2013-10-08 22:13:00,56.1,46.1,29.50,ENE,76,0.0,1.0,69,0.00,,---,0.00,VWS V14.00,2013-10-09 03:13:00,
2013-10-08 22:18:00,55.9,46.3,29.50,ENE,76,0.0,1.0,70,0.00,,---,0.00,VWS V14.00,2013-10-09 03:18:00,
2013-10-08 22:23:00,55.9,46.3,29.50,ENE,76,0.0,1.0,70,0.00,,---,0.00,VWS V14.00,2013-10-09 03:23:00,
2013-10-08 22:28:00,55.8,46.1,29.50,ENE,76,0.0,1.0,70,0.00,,---,0.00,VWS V14.00,2013-10-09 03:28:00,
2013-10-08 22:33:00,55.8,46.5,29.50,ENE,76,0.0,1.0,71,0.00,,---,0.00,VWS V14.00,2013-10-09 03:33:00,
2013-10-08 22:38:00,55.6,46.3,29.50,ENE,76,0.0,1.0,71,0.00,,---,0.00,VWS V14.00,2013-10-09 03:38:00,
2013-10-08 22:43:00,55.6,46.3,29.50,ENE,76,0.0,1.0,71,0.00,,---,0.00,VWS V14.00,2013-10-09 03:43:00,
2013-10-08 22:48:00,55.4,46.2,29.50,ENE,76,0.0,1.0,71,0.00,,---,0.00,VWS V14.00,2013-10-09 03:48:00,
2013-10-08 22:53:00,55.4,46.2,29.50,ENE,76,0.0,1.0,71,0.00,,---,0.00,VWS V14.00,2013-10-09 03:53:00,
2013-10-08 22:58:00,55.4,46.2,29.50,ENE,76,0.0,1.0,71,0.00,,---,0.00,VWS V14.00,2013-10-09 03:58:00,
2013-10-08 23:01:00,55.2,46.4,29.50,ENE,76,0.0,1.0,72,0.00,,---,0.00,VWS V14.00,2013-10-09 04:01:00,
2013-10-08 23:06:00,55.0,46.2,29.50,ENE,76,0.0,1.0,72,0.00,,---,0.00,VWS V14.00,2013-10-09 04:06:00,
2013-10-08 23:11:00,54.9,46.0,29.50,ENE,76,0.0,1.0,72,0.00,,---,0.00,VWS V14.00,2013-10-09 04:11:00,
2013-10-08 23:16:00,54.9,46.4,29.50,ENE,76,0.0,1.0,73,0.00,,---,0.00,VWS V14.00,2013-10-09 04:16:00,
2013-10-08 23:21:00,54.9,46.4,29.50,East,82,4.0,5.8,73,0.00,,---,0.00,VWS V14.00,2013-10-09 04:21:00,
2013-10-08 23:26:00,55.0,46.5,29.50,ENE,77,3.4,5.0,73,0.00,,---,0.00,VWS V14.00,2013-10-09 04:26:00,
2013-10-08 23:31:00,55.0,46.5,29.50,East,100,0.0,1.0,73,0.00,,---,0.00,VWS V14.00,2013-10-09 04:31:00,
2013-10-08 23:36:00,55.0,46.5,29.50,East,87,3.4,5.0,73,0.00,,---,0.00,VWS V14.00,2013-10-09 04:36:00,
2013-10-08 23:41:00,55.2,46.4,29.50,East,82,0.0,5.8,72,0.00,,---,0.00,VWS V14.00,2013-10-09 04:41:00,
2013-10-08 23:46:00,55.0,46.2,29.50,East,82,0.0,1.0,72,0.00,,---,0.00,VWS V14.00,2013-10-09 04:46:00,
2013-10-08 23:51:00,55.2,46.4,29.50,East,82,3.4,5.0,72,0.00,,---,0.00,VWS V14.00,2013-10-09 04:51:00,
2013-10-08 23:56:00,55.2,46.0,29.50,ENE,77,0.0,1.0,71,0.00,,---,0.00,VWS V14.00,2013-10-09 04:56:00,